Time;durP1;ratioP1;P1;durP2;ratioP2;P2;SDS_P1;SDS_P2;PMS_P1;PMS_P2;Temp;Humidity;BMP_temperature;BMP_pressure;BME280_temperature;BME280_humidity;BME280_pressure;Samples;Min_cycle;Max_cycle;Signal;HPM_P1;HPM_P2
2022/01/02 00:01:44;;;;;;;14.77;12.53;;;1.10;99.90;;;;;;5016887;28;20163;-80
2022/01/02 00:04:14;;;;;;;16.60;12.90;;;1.00;99.90;;;;;;5000556;28;20696;-79
2022/01/02 00:06:47;;;;;;;15.03;12.70;;;0.90;99.90;;;;;;4995873;28;20178;-80
2022/01/02 00:09:31;;;;;;;16.17;13.50;;;0.90;99.90;;;;;;5016997;28;20179;-80
2022/01/02 00:12:04;;;;;;;14.90;12.57;;;0.90;99.90;;;;;;5016664;28;20171;-80
2022/01/02 00:14:34;;;;;;;14.13;12.63;;;0.90;99.90;;;;;;4998886;28;20221;-80
2022/01/02 00:17:03;;;;;;;13.77;12.33;;;1.00;99.90;;;;;;5008606;28;20174;-79
2022/01/02 00:19:31;;;;;;;14.80;12.67;;;1.10;99.90;;;;;;5015875;28;20197;-79
2022/01/02 00:22:03;;;;;;;13.07;11.77;;;1.00;99.90;;;;;;5016427;28;20175;-78
2022/01/02 00:24:31;;;;;;;13.53;12.13;;;1.00;99.90;;;;;;5013053;28;20185;-80
2022/01/02 00:26:58;;;;;;;13.60;12.20;;;1.10;99.90;;;;;;5016137;28;20194;-79
2022/01/02 00:29:25;;;;;;;13.80;12.30;;;1.00;99.90;;;;;;4998740;28;20175;-79
2022/01/02 00:31:52;;;;;;;16.13;13.80;;;0.90;99.90;;;;;;5016285;28;20171;-79
2022/01/02 00:34:18;;;;;;;14.63;12.33;;;0.80;99.90;;;;;;5016562;28;20674;-79
2022/01/02 00:36:44;;;;;;;13.50;12.13;;;1.00;99.90;;;;;;4998701;28;20175;-79
2022/01/02 00:39:10;;;;;;;15.33;12.70;;;0.90;99.90;;;;;;5014532;28;20228;-79
2022/01/02 00:41:43;;;;;;;15.27;12.90;;;0.80;99.90;;;;;;5015765;28;20658;-79
2022/01/02 00:44:32;;;;;;;13.93;12.40;;;0.80;99.90;;;;;;4984937;28;20203;-79
2022/01/02 00:47:10;;;;;;;14.57;12.10;;;1.00;99.90;;;;;;4989709;28;20168;-80
2022/01/02 00:49:40;;;;;;;13.03;10.97;;;1.10;99.90;;;;;;5016248;28;20202;-79
2022/01/02 00:52:16;;;;;;;12.73;11.37;;;1.10;99.90;;;;;;5015950;28;20206;-79
2022/01/02 00:54:45;;;;;;;13.40;11.47;;;1.00;99.90;;;;;;4999018;28;20576;-80
2022/01/02 00:57:16;;;;;;;13.77;11.70;;;1.00;99.90;;;;;;5016304;28;20222;-79
2022/01/02 00:59:46;;;;;;;13.30;11.73;;;0.90;99.90;;;;;;4997891;28;20204;-79
2022/01/02 01:02:15;;;;;;;12.93;11.57;;;0.90;99.90;;;;;;5015751;28;20223;-79
2022/01/02 01:04:43;;;;;;;13.83;11.37;;;0.80;99.90;;;;;;5015626;28;20183;-80
2022/01/02 01:07:09;;;;;;;13.27;11.83;;;0.80;99.90;;;;;;5014125;28;20221;-79
2022/01/02 01:09:35;;;;;;;15.10;11.93;;;0.80;99.90;;;;;;4996012;28;20270;-79
2022/01/02 01:12:03;;;;;;;14.03;10.97;;;0.80;99.90;;;;;;5013890;28;20611;-79
2022/01/02 01:14:30;;;;;;;12.37;10.53;;;0.80;99.90;;;;;;4997934;28;20186;-79
2022/01/02 01:16:56;;;;;;;13.80;11.20;;;0.60;99.90;;;;;;4990326;28;20186;-79
2022/01/02 01:19:23;;;;;;;15.80;11.43;;;0.60;99.90;;;;;;4997563;28;20285;-79
2022/01/02 01:21:52;;;;;;;14.53;10.97;;;0.80;99.90;;;;;;5015361;28;20171;-78
2022/01/02 01:24:19;;;;;;;11.87;10.63;;;0.90;99.90;;;;;;5005161;28;20650;-79
2022/01/02 01:26:47;;;;;;;13.10;9.97;;;0.90;99.90;;;;;;5015524;28;20171;-80
2022/01/02 01:29:12;;;;;;;12.20;10.20;;;0.80;99.90;;;;;;5000346;28;20179;-79
2022/01/02 01:31:38;;;;;;;13.37;10.93;;;1.40;99.90;;;;;;5015274;28;20175;-80
2022/01/02 01:34:04;;;;;;;11.90;10.33;;;1.00;99.90;;;;;;5014177;28;20230;-79
2022/01/02 01:36:30;;;;;;;12.77;10.20;;;1.10;99.90;;;;;;5015850;28;20222;-79
2022/01/02 01:38:55;;;;;;;13.57;10.33;;;1.00;99.90;;;;;;5014233;28;20209;-79
2022/01/02 01:41:34;;;;;;;11.37;9.87;;;1.10;99.90;;;;;;5014578;28;20179;-79
2022/01/02 01:44:26;;;;;;;13.17;9.90;;;1.10;99.90;;;;;;5014429;28;20544;-78
2022/01/02 01:46:54;;;;;;;13.10;10.77;;;1.30;99.90;;;;;;5003149;28;20168;-79
2022/01/02 01:49:29;;;;;;;11.57;10.40;;;0.70;99.90;;;;;;5012294;28;20266;-78
2022/01/02 01:51:55;;;;;;;13.33;10.83;;;0.60;99.90;;;;;;5016819;28;20179;-78
2022/01/02 01:54:22;;;;;;;12.83;10.37;;;0.80;99.90;;;;;;5016858;28;20213;-78
2022/01/02 01:56:50;;;;;;;13.40;10.80;;;0.70;99.90;;;;;;5018401;28;20240;-77
2022/01/02 01:59:17;;;;;;;12.83;11.07;;;0.60;99.90;;;;;;5018474;28;20667;-77
2022/01/02 02:01:43;;;;;;;15.13;11.67;;;0.60;99.90;;;;;;5004260;28;20663;-79
2022/01/02 02:04:09;;;;;;;14.27;10.27;;;0.60;99.90;;;;;;5017981;28;20186;-79
2022/01/02 02:06:36;;;;;;;12.33;10.33;;;0.70;99.90;;;;;;5018497;28;20179;-79
2022/01/02 02:09:04;;;;;;;11.23;9.83;;;0.90;99.90;;;;;;5018240;28;20171;-79
2022/01/02 02:11:30;;;;;;;12.23;10.17;;;1.00;99.90;;;;;;5018315;28;20174;-79
2022/01/02 02:13:57;;;;;;;11.27;10.00;;;0.80;99.90;;;;;;5005682;28;20194;-79
2022/01/02 02:16:23;;;;;;;15.13;10.90;;;0.80;99.90;;;;;;5011963;28;20678;-79
2022/01/02 02:18:49;;;;;;;12.67;10.80;;;0.70;99.90;;;;;;5017206;28;20217;-79
2022/01/02 02:21:15;;;;;;;18.30;11.83;;;0.60;99.90;;;;;;5016940;28;20171;-79
2022/01/02 02:23:43;;;;;;;13.77;11.10;;;0.50;99.90;;;;;;5018463;28;20214;-78
2022/01/02 02:26:09;;;;;;;12.27;10.90;;;0.40;99.90;;;;;;5000810;28;20640;-79
2022/01/02 02:28:35;;;;;;;14.67;10.37;;;0.40;99.90;;;;;;5000535;28;20186;-79
2022/01/02 02:31:00;;;;;;;14.07;11.07;;;0.40;99.90;;;;;;5001017;28;20190;-79
2022/01/02 02:33:26;;;;;;;13.80;10.93;;;0.50;99.90;;;;;;5018268;28;20281;-79
2022/01/02 02:35:52;;;;;;;15.97;10.13;;;0.60;99.90;;;;;;5018765;28;20175;-79
2022/01/02 02:38:19;;;;;;;12.57;10.60;;;0.80;99.90;;;;;;5000692;28;20591;-79
2022/01/02 02:40:45;;;;;;;11.13;9.40;;;0.80;99.90;;;;;;5018686;28;20167;-80
2022/01/02 02:51:22;;;;;;;12.53;10.00;;;0.70;99.90;;;;;;5018016;28;20294;-79
2022/01/02 02:53:48;;;;;;;11.23;9.77;;;0.60;99.90;;;;;;4988049;28;20198;-79
2022/01/02 02:58:52;;;;;;;10.83;9.73;;;0.60;99.90;;;;;;5004158;28;20753;-80
2022/01/02 03:01:20;;;;;;;13.17;10.80;;;0.50;99.90;;;;;;4997672;28;20175;-79
2022/01/02 03:03:47;;;;;;;11.47;10.13;;;0.40;99.90;;;;;;4979739;28;20567;-78
2022/01/02 03:06:14;;;;;;;11.10;10.00;;;0.40;99.90;;;;;;4998744;28;20190;-80
2022/01/02 03:08:41;;;;;;;14.50;10.43;;;0.40;99.90;;;;;;4987212;28;20179;-79
2022/01/02 03:11:10;;;;;;;12.03;10.20;;;0.60;99.90;;;;;;4982229;28;20317;-80
2022/01/02 03:13:36;;;;;;;11.30;9.57;;;0.60;99.90;;;;;;4997095;28;20210;-82
2022/01/02 03:16:02;;;;;;;11.07;9.63;;;0.50;99.90;;;;;;4997143;28;20258;-80
2022/01/02 03:18:28;;;;;;;11.80;9.63;;;0.50;99.90;;;;;;4979709;28;20294;-80
2022/01/02 03:20:54;;;;;;;13.23;9.93;;;0.50;99.90;;;;;;4995074;28;20206;-80
2022/01/02 03:23:19;;;;;;;19.37;11.03;;;0.50;99.90;;;;;;4998013;28;20207;-79
2022/01/02 03:25:45;;;;;;;15.73;11.07;;;0.50;99.90;;;;;;4995540;28;20171;-80
2022/01/02 03:28:10;;;;;;;15.67;11.60;;;0.40;99.90;;;;;;4981388;28;20163;-80
2022/01/02 03:30:36;;;;;;;19.30;12.30;;;0.40;99.90;;;;;;4996845;28;20641;-79
2022/01/02 03:33:02;;;;;;;19.30;13.17;;;0.40;99.90;;;;;;4995731;28;20206;-79
2022/01/02 03:35:28;;;;;;;17.00;11.93;;;0.40;99.90;;;;;;4995535;28;20172;-79
2022/01/02 03:37:55;;;;;;;19.77;12.37;;;0.50;99.90;;;;;;4997836;28;20243;-80
2022/01/02 03:40:21;;;;;;;23.83;12.40;;;0.60;99.90;;;;;;4999961;28;20218;-79
2022/01/02 03:42:46;;;;;;;23.47;12.67;;;0.60;99.90;;;;;;5005021;28;20195;-79
2022/01/02 03:45:12;;;;;;;30.43;13.40;;;0.60;99.90;;;;;;4999473;28;20643;-80
2022/01/02 03:47:38;;;;;;;29.43;13.17;;;0.70;99.90;;;;;;4993813;28;20184;-80
2022/01/02 03:50:05;;;;;;;25.63;13.57;;;0.60;99.90;;;;;;4996018;28;20175;-81
2022/01/02 03:52:31;;;;;;;25.47;14.03;;;0.50;99.90;;;;;;4979046;28;20294;-79
2022/01/02 03:54:57;;;;;;;41.17;13.83;;;0.60;99.90;;;;;;4977718;28;20239;-79
2022/01/02 03:57:23;;;;;;;43.37;13.93;;;0.60;99.90;;;;;;4994539;28;20172;-80
2022/01/02 03:59:49;;;;;;;49.53;14.17;;;0.70;99.90;;;;;;4980488;28;20193;-79
2022/01/02 04:02:14;;;;;;;32.13;13.07;;;0.50;99.90;;;;;;4981403;28;20188;-79
2022/01/02 04:04:40;;;;;;;39.70;13.93;;;0.50;99.90;;;;;;4980628;28;20168;-80
2022/01/02 04:07:06;;;;;;;48.30;14.40;;;0.60;99.90;;;;;;4994291;28;20179;-80
2022/01/02 04:09:31;;;;;;;36.73;14.53;;;0.50;99.90;;;;;;4997322;28;20175;-80
2022/01/02 04:11:57;;;;;;;41.87;13.97;;;0.50;99.90;;;;;;4996930;28;20636;-81
2022/01/02 04:14:23;;;;;;;39.27;13.63;;;0.50;99.90;;;;;;4997724;28;20254;-79
2022/01/02 04:16:49;;;;;;;50.30;14.63;;;0.50;99.90;;;;;;4997816;28;20202;-80
2022/01/02 04:19:14;;;;;;;38.53;13.47;;;0.60;99.90;;;;;;4985136;28;20191;-79
2022/01/02 04:21:40;;;;;;;34.90;13.43;;;0.60;99.90;;;;;;4988464;28;20234;-79
2022/01/02 04:24:06;;;;;;;48.27;14.70;;;0.60;99.90;;;;;;5015603;28;20210;-79
2022/01/02 04:26:32;;;;;;;36.00;14.00;;;0.70;99.90;;;;;;4987195;28;20197;-79
2022/01/02 04:28:58;;;;;;;28.10;14.23;;;0.70;99.90;;;;;;5006021;28;20180;-80
2022/01/02 04:31:24;;;;;;;53.37;14.63;;;0.70;99.90;;;;;;4985779;28;20186;-79
2022/01/02 04:33:50;;;;;;;50.73;14.87;;;0.70;99.90;;;;;;5007032;28;20195;-79
2022/01/02 04:36:15;;;;;;;49.67;15.70;;;0.70;99.90;;;;;;5015051;28;20206;-80
2022/01/02 04:38:42;;;;;;;40.67;15.43;;;0.70;99.90;;;;;;5011021;28;20228;-79
2022/01/02 04:41:08;;;;;;;45.20;16.57;;;0.70;99.90;;;;;;5007722;28;20512;-79
2022/01/02 04:43:34;;;;;;;51.67;15.73;;;0.70;99.90;;;;;;5015230;28;20567;-79
2022/01/02 04:46:00;;;;;;;72.60;17.43;;;0.70;99.90;;;;;;5015700;28;20171;-79
2022/01/02 04:48:26;;;;;;;53.93;17.33;;;0.80;99.90;;;;;;5015809;28;20171;-79
2022/01/02 04:50:51;;;;;;;70.77;16.63;;;0.70;99.90;;;;;;4994109;28;20680;-79
2022/01/02 04:53:19;;;;;;;45.10;17.27;;;0.70;99.90;;;;;;5015162;28;20194;-79
2022/01/02 04:55:45;;;;;;;54.80;16.80;;;0.80;99.90;;;;;;4981827;28;20176;-79
2022/01/02 04:58:11;;;;;;;33.57;16.47;;;0.70;99.90;;;;;;5000612;28;20183;-79
2022/01/02 05:00:36;;;;;;;30.07;15.80;;;0.70;99.90;;;;;;4999104;28;20191;-79
2022/01/02 05:03:02;;;;;;;24.63;14.43;;;1.00;99.90;;;;;;4976848;28;20191;-78
2022/01/02 05:05:28;;;;;;;35.00;17.00;;;1.00;99.90;;;;;;4997153;28;20545;-79
2022/01/02 05:07:53;;;;;;;28.63;15.60;;;1.00;99.90;;;;;;4992080;28;20568;-80
2022/01/02 05:10:19;;;;;;;25.93;14.73;;;1.20;99.90;;;;;;4995613;28;20173;-79
2022/01/02 05:12:45;;;;;;;23.00;12.03;;;1.30;99.90;;;;;;4997876;28;20660;-80
2022/01/02 05:15:10;;;;;;;41.93;11.63;;;1.40;99.90;;;;;;5014171;28;20176;-80
2022/01/02 05:17:36;;;;;;;33.30;12.53;;;1.30;99.90;;;;;;4997027;28;20651;-79
2022/01/02 05:20:03;;;;;;;27.57;12.60;;;1.30;99.90;;;;;;5000782;28;20262;-78
2022/01/02 05:22:29;;;;;;;42.60;11.93;;;1.20;99.90;;;;;;4997358;28;20222;-79
2022/01/02 05:24:54;;;;;;;41.20;13.53;;;1.00;99.90;;;;;;5013019;28;20191;-80
2022/01/02 05:27:20;;;;;;;29.03;13.00;;;0.90;99.90;;;;;;5009486;28;20255;-80
2022/01/02 05:29:46;;;;;;;30.80;13.70;;;0.90;99.90;;;;;;4989715;28;20178;-79
2022/01/02 05:32:11;;;;;;;29.80;13.20;;;0.90;99.90;;;;;;4996839;28;20664;-79
2022/01/02 05:34:37;;;;;;;52.60;13.50;;;0.80;99.90;;;;;;5003933;28;20183;-79
2022/01/02 05:37:03;;;;;;;37.67;13.30;;;0.90;99.90;;;;;;5011603;28;20183;-79
2022/01/02 05:39:28;;;;;;;46.17;14.30;;;0.80;99.90;;;;;;5006268;28;20667;-79
2022/01/02 05:41:54;;;;;;;35.17;13.77;;;0.80;99.90;;;;;;5010431;28;20178;-79
2022/01/02 05:44:19;;;;;;;42.67;13.43;;;0.70;99.90;;;;;;4997081;28;20179;-79
2022/01/02 05:46:46;;;;;;;33.90;15.00;;;1.10;99.90;;;;;;5014684;28;20171;-80
2022/01/02 05:49:13;;;;;;;46.57;14.87;;;0.80;99.90;;;;;;4997167;28;20258;-80
2022/01/02 05:51:40;;;;;;;51.03;14.37;;;0.80;99.90;;;;;;5014043;28;20189;-80
2022/01/02 05:54:06;;;;;;;28.93;13.73;;;0.90;99.90;;;;;;5014185;28;20278;-80
2022/01/02 05:56:32;;;;;;;26.83;14.50;;;0.80;99.90;;;;;;5007484;28;20171;-79
2022/01/02 05:58:58;;;;;;;29.23;14.03;;;0.90;99.90;;;;;;5014237;28;20209;-79
2022/01/02 06:01:23;;;;;;;47.60;13.37;;;1.10;99.90;;;;;;4996819;28;20167;-80
2022/01/02 06:03:49;;;;;;;33.80;13.60;;;0.90;99.90;;;;;;4997234;28;20198;-80
2022/01/02 06:06:15;;;;;;;37.40;14.53;;;0.80;99.90;;;;;;5014012;28;20250;-80
2022/01/02 06:08:40;;;;;;;28.93;14.33;;;0.70;99.90;;;;;;5014115;28;20183;-80
2022/01/02 06:11:06;;;;;;;26.07;14.93;;;0.60;99.90;;;;;;5014320;28;20183;-80
2022/01/02 06:13:32;;;;;;;39.30;14.37;;;0.70;99.90;;;;;;5014221;28;20683;-79
2022/01/02 06:15:57;;;;;;;27.43;13.47;;;0.80;99.90;;;;;;5011965;28;20179;-80
2022/01/02 06:18:23;;;;;;;25.80;13.00;;;0.70;99.90;;;;;;4996883;28;20183;-80
2022/01/02 06:20:49;;;;;;;31.00;14.10;;;0.60;99.90;;;;;;5014483;28;20175;-80
2022/01/02 06:23:16;;;;;;;25.63;13.73;;;0.50;99.90;;;;;;5000527;28;20278;-79
2022/01/02 06:25:42;;;;;;;18.80;12.80;;;0.50;99.90;;;;;;5006156;28;20191;-80
2022/01/02 06:28:08;;;;;;;23.97;13.83;;;0.50;99.90;;;;;;5001598;28;20176;-80
2022/01/02 06:30:34;;;;;;;21.60;14.47;;;0.40;99.90;;;;;;4996297;28;20171;-79
2022/01/02 06:32:59;;;;;;;16.93;13.67;;;0.40;99.90;;;;;;5014140;28;20198;-79
2022/01/02 06:35:28;;;;;;;18.50;13.57;;;0.60;99.90;;;;;;4986639;28;20194;-80
2022/01/02 06:37:54;;;;;;;25.47;13.10;;;0.60;99.90;;;;;;4998803;28;20722;-80
2022/01/02 06:40:21;;;;;;;19.83;13.13;;;0.60;99.90;;;;;;4999717;28;20199;-79
2022/01/02 06:42:47;;;;;;;34.37;13.77;;;0.60;99.90;;;;;;4999781;28;20701;-79
2022/01/02 06:45:13;;;;;;;49.90;12.77;;;0.60;99.90;;;;;;5017497;28;20175;-80
2022/01/02 06:47:39;;;;;;;27.20;13.80;;;0.60;99.90;;;;;;5017309;28;20171;-80
2022/01/02 06:50:06;;;;;;;19.43;13.17;;;0.60;99.90;;;;;;5006553;28;20176;-79
2022/01/02 06:52:31;;;;;;;19.17;12.77;;;0.60;99.90;;;;;;5012753;28;20199;-79
2022/01/02 06:54:57;;;;;;;28.50;13.67;;;0.50;99.90;;;;;;4995767;28;20190;-79
2022/01/02 06:57:23;;;;;;;21.57;13.60;;;0.60;99.90;;;;;;5006116;28;20266;-79
2022/01/02 06:59:50;;;;;;;36.90;13.93;;;0.60;99.90;;;;;;5004214;28;20206;-78
2022/01/02 07:02:17;;;;;;;25.10;13.70;;;0.60;99.90;;;;;;5015060;28;20195;-79
2022/01/02 07:04:42;;;;;;;50.00;14.17;;;0.60;99.90;;;;;;4998755;28;20555;-77
2022/01/02 07:07:09;;;;;;;32.63;13.80;;;0.60;99.90;;;;;;4981876;28;20264;-79
2022/01/02 07:09:35;;;;;;;45.20;15.20;;;0.60;99.90;;;;;;4996736;28;20179;-78
2022/01/02 07:12:01;;;;;;;46.73;16.07;;;0.60;99.90;;;;;;4996586;28;20180;-79
2022/01/02 07:14:27;;;;;;;35.23;14.30;;;0.60;99.90;;;;;;4980715;28;20179;-78
2022/01/02 07:16:58;;;;;;;28.63;14.67;;;0.60;99.90;;;;;;4997448;28;20175;-78
2022/01/02 07:19:24;;;;;;;33.83;15.07;;;0.70;99.90;;;;;;4995458;28;20282;-78
2022/01/02 07:21:50;;;;;;;43.60;16.80;;;0.60;99.90;;;;;;4979740;28;20183;-79
2022/01/02 07:24:17;;;;;;;46.53;15.90;;;0.60;99.90;;;;;;4986240;28;20567;-79
2022/01/02 07:26:42;;;;;;;31.70;16.93;;;0.70;99.90;;;;;;4997193;28;20178;-78
2022/01/02 07:29:08;;;;;;;53.53;16.33;;;0.60;99.90;;;;;;4994959;28;20712;-78
2022/01/02 07:31:34;;;;;;;29.50;16.30;;;0.60;99.90;;;;;;5012404;28;20705;-77
2022/01/02 07:34:00;;;;;;;43.33;17.67;;;0.60;99.90;;;;;;4999685;28;20213;-79
2022/01/02 07:36:26;;;;;;;49.37;16.87;;;0.70;99.90;;;;;;4994758;28;20672;-79
2022/01/02 07:38:51;;;;;;;51.17;18.20;;;0.70;99.90;;;;;;5015518;28;20205;-78
2022/01/02 07:41:17;;;;;;;78.10;19.10;;;0.70;99.90;;;;;;5016297;28;20167;-78
2022/01/02 07:43:43;;;;;;;59.53;18.80;;;0.70;99.90;;;;;;5015834;28;20195;-78
2022/01/02 07:46:08;;;;;;;59.47;20.17;;;0.70;99.90;;;;;;5016053;28;20179;-78
2022/01/02 07:48:34;;;;;;;36.90;19.77;;;0.80;99.90;;;;;;5003395;28;20180;-78
2022/01/02 07:50:59;;;;;;;34.70;18.90;;;0.80;99.90;;;;;;5014674;28;20190;-79
2022/01/02 07:53:25;;;;;;;46.40;19.03;;;0.90;99.90;;;;;;5015259;28;20194;-78
2022/01/02 07:55:51;;;;;;;49.93;17.47;;;1.00;99.90;;;;;;5004020;28;20201;-78
2022/01/02 07:58:17;;;;;;;53.37;18.00;;;0.90;99.90;;;;;;5006619;28;20549;-78
2022/01/02 08:00:43;;;;;;;35.87;18.43;;;0.80;99.90;;;;;;5002052;28;20171;-79
2022/01/02 08:03:09;;;;;;;54.00;19.37;;;0.80;99.90;;;;;;4998757;28;20207;-79
2022/01/02 08:05:35;;;;;;;40.60;17.10;;;0.80;99.90;;;;;;5004503;28;20183;-79
2022/01/02 08:08:00;;;;;;;42.10;17.90;;;0.80;99.90;;;;;;5014290;28;20182;-79
2022/01/02 08:10:27;;;;;;;59.33;19.50;;;0.70;99.90;;;;;;5009422;28;20178;-78
2022/01/02 08:12:54;;;;;;;51.60;19.00;;;0.70;99.90;;;;;;5006093;28;20268;-78
2022/01/02 08:15:20;;;;;;;40.03;18.13;;;0.80;99.90;;;;;;4993310;28;20190;-79
2022/01/02 08:17:46;;;;;;;34.03;18.37;;;0.80;99.90;;;;;;5007351;28;20183;-78
2022/01/02 08:20:11;;;;;;;29.07;17.37;;;0.80;99.90;;;;;;5005023;28;20259;-78
2022/01/02 08:22:37;;;;;;;45.37;19.27;;;0.90;99.90;;;;;;5004140;28;20191;-78
2022/01/02 08:25:04;;;;;;;47.60;18.80;;;1.00;99.90;;;;;;4992778;28;20187;-78
2022/01/02 08:27:29;;;;;;;38.23;18.67;;;0.90;99.90;;;;;;4993381;28;20266;-80
2022/01/02 08:29:55;;;;;;;36.03;19.13;;;0.90;99.90;;;;;;4993047;28;20254;-79
2022/01/02 08:32:21;;;;;;;40.87;18.23;;;1.00;99.90;;;;;;4992792;28;20199;-78
2022/01/02 08:34:47;;;;;;;35.27;18.23;;;1.00;99.90;;;;;;4993213;28;20183;-79
2022/01/02 08:37:15;;;;;;;26.20;17.53;;;1.00;99.90;;;;;;4993264;28;20266;-79
2022/01/02 08:39:42;;;;;;;33.70;18.87;;;1.10;99.90;;;;;;4993267;28;20199;-78
2022/01/02 08:42:08;;;;;;;39.97;21.03;;;1.10;99.90;;;;;;4992885;28;20335;-78
2022/01/02 08:44:35;;;;;;;31.73;18.40;;;1.30;99.90;;;;;;4990344;28;20676;-78
2022/01/02 08:47:00;;;;;;;30.57;16.77;;;1.40;99.90;;;;;;4992437;28;20171;-79
2022/01/02 08:49:26;;;;;;;24.50;16.50;;;1.50;99.90;;;;;;4992915;28;20183;-79
2022/01/02 08:51:54;;;;;;;26.57;16.73;;;1.60;99.90;;;;;;4992445;28;20183;-79
2022/01/02 08:54:19;;;;;;;24.27;17.23;;;1.70;99.90;;;;;;4992951;28;20214;-79
2022/01/02 08:56:45;;;;;;;26.17;17.33;;;1.70;99.90;;;;;;4991939;28;20207;-79
2022/01/02 08:59:11;;;;;;;34.03;20.77;;;1.80;99.90;;;;;;4992157;28;20558;-79
2022/01/02 09:01:37;;;;;;;26.87;17.87;;;1.90;99.90;;;;;;4992628;28;20219;-79
2022/01/02 09:04:02;;;;;;;28.93;18.17;;;1.80;99.90;;;;;;4993282;28;20204;-79
2022/01/02 09:06:28;;;;;;;23.27;17.00;;;1.70;99.90;;;;;;4994100;28;20651;-79
2022/01/02 09:08:55;;;;;;;24.10;16.87;;;1.70;99.90;;;;;;4992216;28;20532;-79
2022/01/02 09:11:21;;;;;;;20.73;14.67;;;2.00;99.90;;;;;;4992417;28;20537;-78
2022/01/02 09:13:47;;;;;;;22.83;14.90;;;1.80;99.90;;;;;;4992064;28;20196;-78
2022/01/02 09:16:13;;;;;;;27.63;14.33;;;1.70;99.90;;;;;;4992561;28;20184;-78
2022/01/02 09:18:39;;;;;;;25.10;16.47;;;1.70;99.90;;;;;;4992334;28;20200;-78
2022/01/02 09:21:05;;;;;;;22.03;15.80;;;1.70;99.90;;;;;;4992756;28;20174;-79
2022/01/02 09:23:31;;;;;;;18.97;14.50;;;1.80;99.90;;;;;;4990014;28;20227;-79
2022/01/02 09:25:56;;;;;;;23.00;16.00;;;1.90;99.90;;;;;;4991296;28;20211;-79
2022/01/02 09:28:22;;;;;;;22.23;15.17;;;1.90;99.90;;;;;;4993224;28;20582;-79
2022/01/02 09:30:48;;;;;;;28.13;17.87;;;1.80;99.90;;;;;;4992658;28;20728;-78
2022/01/02 09:33:14;;;;;;;24.93;16.00;;;1.80;99.90;;;;;;4992272;28;20192;-78
2022/01/02 09:35:41;;;;;;;21.57;16.13;;;2.00;99.90;;;;;;4992254;28;20176;-79
2022/01/02 09:38:08;;;;;;;22.30;15.53;;;1.90;99.90;;;;;;4992555;28;20227;-78
2022/01/02 09:40:35;;;;;;;20.87;15.47;;;1.80;99.90;;;;;;4992492;28;20726;-78
2022/01/02 09:43:03;;;;;;;19.67;15.03;;;1.80;99.90;;;;;;4981498;28;20211;-77
2022/01/02 09:45:33;;;;;;;20.33;15.43;;;1.80;99.90;;;;;;4992308;28;20180;-78
2022/01/02 09:48:00;;;;;;;19.17;15.47;;;1.80;99.90;;;;;;4990271;28;20173;-79
2022/01/02 09:50:26;;;;;;;21.63;15.77;;;1.80;99.90;;;;;;4992430;28;20183;-79
2022/01/02 09:52:52;;;;;;;22.33;15.87;;;1.80;99.90;;;;;;4991869;28;20295;-79
2022/01/02 09:55:18;;;;;;;24.03;16.87;;;1.90;99.90;;;;;;4992598;28;20171;-78
2022/01/02 09:57:45;;;;;;;25.83;17.83;;;1.80;99.90;;;;;;4992657;28;20547;-78
2022/01/02 10:00:12;;;;;;;28.03;18.63;;;1.80;99.90;;;;;;4992509;28;20193;-78
2022/01/02 10:03:00;;;;;;;29.20;19.20;;;1.80;99.90;;;;;;4990010;28;20192;-78
2022/01/02 10:05:28;;;;;;;25.83;18.07;;;1.90;99.90;;;;;;4991346;28;20195;-78
2022/01/02 10:07:56;;;;;;;24.90;17.80;;;2.00;99.90;;;;;;4993096;28;20656;-79
2022/01/02 10:10:32;;;;;;;26.23;18.43;;;2.20;99.90;;;;;;4992711;28;20172;-79
2022/01/02 10:13:02;;;;;;;25.23;18.13;;;2.40;99.90;;;;;;4993342;28;20219;-79
2022/01/02 10:15:28;;;;;;;23.60;17.50;;;2.30;99.90;;;;;;4997790;28;20177;-78
2022/01/02 10:18:06;;;;;;;24.37;18.40;;;2.40;99.90;;;;;;4993404;28;20570;-80
2022/01/02 10:20:42;;;;;;;25.80;18.10;;;2.50;99.90;;;;;;4992341;28;20199;-78
2022/01/02 10:23:16;;;;;;;25.07;18.67;;;2.70;99.90;;;;;;4998736;28;20201;-79
2022/01/02 10:25:43;;;;;;;23.60;17.93;;;2.70;99.90;;;;;;4977562;28;20195;-78
2022/01/02 10:28:18;;;;;;;23.10;17.17;;;2.90;99.90;;;;;;4978909;28;20172;-79
2022/01/02 10:30:48;;;;;;;25.73;18.17;;;3.00;99.90;;;;;;4979077;28;20208;-78
2022/01/02 10:33:14;;;;;;;23.43;18.27;;;3.00;99.90;;;;;;4979213;28;20223;-79
2022/01/02 10:35:43;;;;;;;27.23;17.37;;;3.20;99.90;;;;;;4979494;28;20177;-78
2022/01/02 10:38:16;;;;;;;24.97;17.63;;;3.30;99.90;;;;;;4981660;28;20203;-79
2022/01/02 10:40:43;;;;;;;22.47;17.97;;;3.50;99.90;;;;;;4977274;28;20207;-78
2022/01/02 10:43:21;;;;;;;21.83;17.97;;;3.60;99.90;;;;;;4980006;28;20196;-79
2022/01/02 10:45:53;;;;;;;25.83;18.43;;;3.70;99.90;;;;;;4978545;28;20187;-78
2022/01/02 10:48:39;;;;;;;26.37;18.53;;;4.00;99.90;;;;;;4979531;28;20176;-78
2022/01/02 10:51:17;;;;;;;22.07;16.90;;;4.10;99.90;;;;;;4978249;28;20171;-78
2022/01/02 10:53:57;;;;;;;28.40;18.53;;;4.30;99.90;;;;;;4978030;28;20629;-79
2022/01/02 10:56:26;;;;;;;28.93;17.13;;;4.80;99.90;;;;;;4980045;28;20180;-80
2022/01/02 10:58:52;;;;;;;38.93;19.00;;;5.10;99.90;;;;;;4980583;28;20212;-79
2022/01/02 11:01:20;;;;;;;30.67;16.73;;;5.30;99.90;;;;;;4986731;28;20232;-79
2022/01/02 11:03:47;;;;;;;24.83;14.40;;;5.50;99.90;;;;;;4986380;28;20205;-79
2022/01/02 11:06:29;;;;;;;18.73;13.43;;;5.70;99.90;;;;;;4986809;28;20242;-79
2022/01/02 11:08:57;;;;;;;16.27;11.93;;;5.80;99.90;;;;;;4984614;28;20341;-80
2022/01/02 11:11:24;;;;;;;17.17;12.73;;;6.00;99.90;;;;;;4979464;28;20647;-80
2022/01/02 11:13:50;;;;;;;12.50;10.07;;;6.00;99.90;;;;;;4988601;28;20201;-80
2022/01/02 11:16:16;;;;;;;12.20;10.10;;;6.10;99.90;;;;;;4988350;28;20571;-80
2022/01/02 11:18:42;;;;;;;10.47;8.90;;;6.20;99.90;;;;;;5009003;28;20261;-79
2022/01/02 11:21:10;;;;;;;14.70;12.47;;;6.20;99.90;;;;;;4991399;28;20606;-79
2022/01/02 11:23:51;;;;;;;15.67;14.03;;;6.20;99.90;;;;;;4996143;28;20219;-80
2022/01/02 11:26:38;;;;;;;15.80;14.10;;;6.00;99.90;;;;;;5002138;28;20203;-80
2022/01/02 11:29:03;;;;;;;18.20;15.10;;;5.70;99.90;;;;;;5007216;28;20216;-79
2022/01/02 11:31:35;;;;;;;17.37;14.57;;;5.60;99.90;;;;;;4994742;28;20255;-79
2022/01/02 11:34:19;;;;;;;12.87;11.33;;;5.60;99.90;;;;;;5006986;28;20205;-79
2022/01/02 11:36:45;;;;;;;10.47;9.33;;;5.70;99.90;;;;;;5003070;28;20662;-79
2022/01/02 11:39:11;;;;;;;8.73;7.93;;;6.00;99.90;;;;;;5001222;28;20198;-79
2022/01/02 11:41:47;;;;;;;10.13;7.87;;;6.30;99.90;;;;;;5001130;28;20634;-76
2022/01/02 11:44:21;;;;;;;10.17;7.57;;;6.50;99.90;;;;;;5001878;28;20182;-79
2022/01/02 11:46:52;;;;;;;7.70;6.90;;;6.70;99.90;;;;;;5002515;28;20170;-76
2022/01/02 11:49:25;;;;;;;8.10;7.20;;;6.90;99.90;;;;;;4998073;28;20198;-76
2022/01/02 11:51:54;;;;;;;8.03;7.23;;;7.00;99.90;;;;;;4991253;28;20262;-76
2022/01/02 11:54:29;;;;;;;7.83;7.13;;;7.10;99.90;;;;;;4993985;28;20540;-75
2022/01/02 11:57:27;;;;;;;7.87;7.07;;;7.10;99.90;;;;;;4992031;28;20180;-76
2022/01/02 11:59:56;;;;;;;7.70;6.60;;;7.10;99.90;;;;;;4990359;28;20221;-75
2022/01/02 12:02:23;;;;;;;7.43;6.73;;;7.10;99.90;;;;;;4993811;28;20687;-76
2022/01/02 12:04:58;;;;;;;8.17;7.03;;;7.10;99.90;;;;;;4994522;28;20174;-79
2022/01/02 12:07:37;;;;;;;7.97;7.17;;;7.20;99.90;;;;;;4992274;28;20173;-79
2022/01/02 12:10:15;;;;;;;10.27;7.40;;;7.20;99.90;;;;;;4992690;28;20171;-79
2022/01/02 12:12:59;;;;;;;7.83;6.87;;;7.20;99.90;;;;;;4991803;28;20205;-79
2022/01/02 12:15:30;;;;;;;7.73;6.70;;;7.20;99.90;;;;;;4994403;28;20178;-79
2022/01/02 12:18:26;;;;;;;7.57;6.77;;;7.30;99.90;;;;;;4995406;28;20171;-79
2022/01/02 12:20:52;;;;;;;7.40;6.70;;;7.30;99.90;;;;;;4992501;28;20201;-80
2022/01/02 12:26:00;;;;;;;7.93;7.17;;;7.40;99.90;;;;;;4999780;28;20179;-79
2022/01/02 12:28:28;;;;;;;7.80;7.00;;;7.50;99.90;;;;;;4979319;28;20168;-80
2022/01/02 12:30:56;;;;;;;7.47;6.77;;;7.50;99.90;;;;;;4979265;28;20177;-79
2022/01/02 12:33:27;;;;;;;7.33;6.60;;;7.60;99.90;;;;;;4993170;28;20193;-79
2022/01/02 12:35:52;;;;;;;8.53;7.63;;;7.60;99.90;;;;;;4979401;28;20182;-80
2022/01/02 12:38:18;;;;;;;7.90;7.20;;;7.70;99.90;;;;;;4979834;28;20180;-79
2022/01/02 12:40:44;;;;;;;8.30;7.50;;;7.70;99.90;;;;;;4979532;28;20202;-80
2022/01/02 12:43:11;;;;;;;8.70;7.90;;;7.70;99.90;;;;;;4979641;28;20203;-80
2022/01/02 12:45:38;;;;;;;9.10;7.33;;;7.70;99.90;;;;;;4979852;28;20180;-80
2022/01/02 12:48:04;;;;;;;8.07;7.27;;;7.70;99.90;;;;;;4980240;28;20206;-80
2022/01/02 12:50:31;;;;;;;10.13;8.33;;;7.80;99.90;;;;;;4979791;28;20544;-78
2022/01/02 12:52:58;;;;;;;8.47;7.60;;;7.90;99.90;;;;;;4979421;28;20286;-80
2022/01/02 12:55:26;;;;;;;8.40;7.40;;;8.10;99.90;;;;;;5006554;28;20667;-80